Willis Wharf, Virginia
Current Conditions -  °F | °C
As of 8:35 PM on Wednesday 26 Nov 2014 (Local Time) from KMFV Reporting Station
Overcast Overcast  
Wind Chill: 34°   Ceiling: 1000
Heat Index: 41°   Visibility: 10mi
Dew Point: 36°   Wind: 12mph
Humidity: 81%   Direction: 330°NNW
Pressure: 29.91"   Gusts: 22mph
Location:  37.52°N, 75.81°W
Report Text: KMFV 270135Z AUTO 33010G19KT 10SM OVC010 05/02 A2991 RMK AO2
Loading
Personal Weather Stations






























Interactive Weather Map New forecast layout! Learn more

10-Day Weather Forecast

Advertisements
Track Severe Weather on mobile